createdAt,value
2023-07-25T00:00:35.497Z,96.40
2023-07-25T00:03:02.441Z,96.60
2023-07-25T00:05:36.273Z,96.50
2023-07-25T00:08:09.210Z,96.60
2023-07-25T00:10:36.023Z,96.60
2023-07-25T00:13:02.885Z,96.60
2023-07-25T00:15:30.168Z,96.60
2023-07-25T00:18:00.199Z,96.60
2023-07-25T00:20:27.237Z,96.60
2023-07-25T00:23:01.434Z,96.60
2023-07-25T00:25:28.315Z,96.60
2023-07-25T00:27:55.169Z,96.60
2023-07-25T00:30:22.638Z,96.60
2023-07-25T00:32:49.576Z,96.60
2023-07-25T00:35:16.565Z,96.60
2023-07-25T00:37:43.426Z,96.60
2023-07-25T00:40:10.549Z,96.60
2023-07-25T00:42:41.072Z,96.60
2023-07-25T00:45:08.758Z,96.60
2023-07-25T00:47:35.663Z,96.60
2023-07-25T00:50:02.816Z,96.60
2023-07-25T00:52:29.654Z,96.60
2023-07-25T00:54:56.577Z,96.60
2023-07-25T00:57:23.531Z,96.60
2023-07-25T00:59:50.355Z,96.60
2023-07-25T01:02:17.761Z,96.60
2023-07-25T01:04:45.129Z,96.60
2023-07-25T01:07:14.203Z,96.60
2023-07-25T01:09:42.933Z,96.60
2023-07-25T01:12:11.269Z,96.60
2023-07-25T01:14:39.771Z,96.60
2023-07-25T01:17:19.290Z,96.60
2023-07-25T01:19:47.875Z,96.60
2023-07-25T01:22:15.261Z,96.60
2023-07-25T01:24:48.072Z,96.60
2023-07-25T01:27:15.807Z,96.60
2023-07-25T01:29:42.772Z,96.60
2023-07-25T01:32:10.522Z,96.60
2023-07-25T01:34:37.676Z,96.60
2023-07-25T01:37:06.290Z,96.60
2023-07-25T01:39:33.105Z,96.60
2023-07-25T01:41:59.992Z,96.60
2023-07-25T01:44:26.776Z,96.60
2023-07-25T01:46:58.164Z,96.60
2023-07-25T01:49:25.117Z,96.60
2023-07-25T01:51:52.994Z,96.60
2023-07-25T01:54:20.078Z,96.60
2023-07-25T01:56:50.294Z,96.60
2023-07-25T01:59:19.044Z,96.60
2023-07-25T02:01:46.008Z,96.60
2023-07-25T02:04:13.548Z,96.60
2023-07-25T02:06:40.576Z,96.60
2023-07-25T02:09:07.525Z,96.60
2023-07-25T02:11:34.447Z,96.60
2023-07-25T02:14:01.584Z,96.60
2023-07-25T02:16:28.455Z,96.60
2023-07-25T02:18:55.388Z,96.60
2023-07-25T02:21:22.351Z,96.60
2023-07-25T02:23:49.173Z,96.60
2023-07-25T02:26:16.023Z,96.60
2023-07-25T02:28:42.860Z,96.60
2023-07-25T02:31:09.791Z,96.60
2023-07-25T02:33:36.698Z,96.60
2023-07-25T02:36:03.689Z,96.60
2023-07-25T02:38:30.566Z,96.60
2023-07-25T02:40:57.431Z,96.60
2023-07-25T02:43:24.382Z,96.60
2023-07-25T02:45:52.287Z,96.60
2023-07-25T02:48:20.503Z,96.60
2023-07-25T02:50:47.533Z,96.60
2023-07-25T02:53:14.612Z,96.60
2023-07-25T02:55:41.546Z,96.60
2023-07-25T02:58:08.543Z,96.60
2023-07-25T03:00:36.122Z,96.60
2023-07-25T03:03:04.627Z,96.60
2023-07-25T03:05:31.465Z,96.60
2023-07-25T03:07:58.708Z,96.60
2023-07-25T03:10:25.739Z,96.60
2023-07-25T03:12:53.868Z,96.60
2023-07-25T03:15:21.429Z,96.60
2023-07-25T03:17:48.418Z,96.60
2023-07-25T03:20:15.445Z,96.60
2023-07-25T03:22:42.444Z,96.60
2023-07-25T03:25:09.776Z,96.60
2023-07-25T03:27:37.242Z,96.60
2023-07-25T03:30:05.280Z,96.60
2023-07-25T03:32:35.851Z,96.60
2023-07-25T03:35:03.544Z,96.60
2023-07-25T03:37:30.328Z,96.60
2023-07-25T03:39:57.289Z,96.60
2023-07-25T03:42:24.294Z,96.60
2023-07-25T03:44:52.685Z,96.60
2023-07-25T03:47:22.289Z,96.60
2023-07-25T03:49:50.177Z,96.60
2023-07-25T03:52:17.074Z,96.60
2023-07-25T03:54:43.866Z,96.60
2023-07-25T03:57:10.827Z,96.60
2023-07-25T03:59:37.700Z,96.60
2023-07-25T04:02:04.854Z,96.60
2023-07-25T04:04:31.845Z,96.60
2023-07-25T04:06:58.742Z,96.60
2023-07-25T04:09:25.521Z,96.60
2023-07-25T04:11:52.387Z,96.60
2023-07-25T04:14:19.217Z,96.60
2023-07-25T04:16:45.974Z,96.60
2023-07-25T04:19:12.952Z,96.60
2023-07-25T04:21:39.880Z,96.60
2023-07-25T04:24:06.869Z,96.60
2023-07-25T04:26:33.861Z,96.60
2023-07-25T04:29:00.629Z,96.60
2023-07-25T04:31:27.500Z,96.60
2023-07-25T04:33:54.363Z,96.60
2023-07-25T04:36:21.270Z,96.60
2023-07-25T04:38:48.239Z,96.60
2023-07-25T04:41:15.008Z,96.60
2023-07-25T04:43:41.781Z,96.60
2023-07-25T04:46:08.690Z,96.60
2023-07-25T04:48:35.533Z,96.60
2023-07-25T04:51:02.331Z,96.60
2023-07-25T04:53:29.121Z,96.60
2023-07-25T04:55:55.928Z,96.60
2023-07-25T04:58:22.773Z,96.60
2023-07-25T05:00:49.540Z,96.60
2023-07-25T05:03:16.492Z,96.60
2023-07-25T05:05:43.369Z,96.60
2023-07-25T05:08:10.198Z,96.60
2023-07-25T05:10:37.085Z,96.60
2023-07-25T05:13:03.891Z,96.60
2023-07-25T05:15:30.741Z,96.60
2023-07-25T05:17:57.539Z,96.60
2023-07-25T05:20:24.437Z,96.60
2023-07-25T05:22:51.809Z,96.60
2023-07-25T05:25:18.591Z,96.60
2023-07-25T05:27:45.454Z,96.60
2023-07-25T05:30:12.423Z,96.60
2023-07-25T05:32:40.484Z,96.60
2023-07-25T05:35:07.589Z,96.60
2023-07-25T05:37:39.195Z,96.60
2023-07-25T05:40:07.089Z,96.60
2023-07-25T05:42:34.121Z,96.60
2023-07-25T05:45:01.447Z,96.50
2023-07-25T05:47:29.117Z,96.30
2023-07-25T05:49:57.630Z,95.80
2023-07-25T05:52:24.469Z,95.30
2023-07-25T05:54:52.426Z,94.90
2023-07-25T05:57:19.498Z,95.00
2023-07-25T05:59:46.592Z,94.70
2023-07-25T06:02:13.597Z,94.70
2023-07-25T06:04:40.443Z,94.70
2023-07-25T06:07:07.589Z,94.20
2023-07-25T06:09:34.533Z,93.80
2023-07-25T06:12:01.535Z,94.00
2023-07-25T06:14:28.494Z,94.30
2023-07-25T06:16:55.494Z,94.60
2023-07-25T06:19:22.722Z,93.30
2023-07-25T06:21:49.880Z,92.80
2023-07-25T06:24:17.242Z,93.30
2023-07-25T06:26:44.282Z,92.40
2023-07-25T06:29:11.083Z,92.50
2023-07-25T06:31:38.230Z,92.00
2023-07-25T06:34:05.924Z,91.50
2023-07-25T06:36:33.225Z,91.80
2023-07-25T06:39:00.158Z,91.80
2023-07-25T06:41:27.583Z,92.10
2023-07-25T06:43:59.267Z,92.10
2023-07-25T06:46:26.463Z,92.00
2023-07-25T06:48:53.618Z,92.10
2023-07-25T06:51:21.553Z,92.00
2023-07-25T06:53:48.636Z,92.10
2023-07-25T06:56:15.696Z,91.80
2023-07-25T06:58:42.681Z,91.50
2023-07-25T07:01:09.688Z,91.60
2023-07-25T07:03:36.602Z,91.10
2023-07-25T07:06:03.585Z,91.10
2023-07-25T07:08:30.520Z,91.30
2023-07-25T07:10:57.474Z,91.20
2023-07-25T07:13:24.624Z,91.00
2023-07-25T07:15:51.552Z,89.90
2023-07-25T07:18:18.913Z,89.50
2023-07-25T07:20:49.766Z,90.10
2023-07-25T07:23:17.558Z,89.80
2023-07-25T07:25:45.675Z,89.40
2023-07-25T07:28:13.929Z,89.90
2023-07-25T07:30:40.923Z,88.60
2023-07-25T07:33:07.880Z,87.70
2023-07-25T07:35:34.805Z,87.50
2023-07-25T07:38:01.767Z,86.90
2023-07-25T07:40:29.717Z,86.00
2023-07-25T07:42:56.633Z,86.00
2023-07-25T07:45:24.994Z,85.40
2023-07-25T07:47:52.827Z,85.00
2023-07-25T07:50:20.195Z,85.00
2023-07-25T07:52:47.660Z,84.90
2023-07-25T07:55:15.093Z,85.60
2023-07-25T07:57:43.833Z,84.50
2023-07-25T08:00:13.001Z,83.50
2023-07-25T08:02:40.179Z,84.20
2023-07-25T08:05:07.440Z,83.80
2023-07-25T08:07:34.400Z,83.60
2023-07-25T08:10:01.675Z,82.80
2023-07-25T08:12:28.651Z,82.80
2023-07-25T08:14:55.494Z,82.60
2023-07-25T08:17:22.444Z,83.00
2023-07-25T08:19:49.974Z,82.80
2023-07-25T08:22:17.059Z,82.90
2023-07-25T08:24:44.095Z,82.80
2023-07-25T08:27:11.119Z,82.80
2023-07-25T08:29:42.666Z,82.70
2023-07-25T08:32:10.839Z,83.30
2023-07-25T08:34:38.921Z,83.30
2023-07-25T08:37:07.258Z,82.80
2023-07-25T08:39:35.042Z,82.90
2023-07-25T08:42:06.109Z,81.70
2023-07-25T08:44:35.430Z,82.60
2023-07-25T08:47:06.994Z,83.00
2023-07-25T08:49:37.048Z,84.00
2023-07-25T08:52:05.433Z,83.70
2023-07-25T08:54:37.957Z,83.70
2023-07-25T08:57:05.873Z,83.10
2023-07-25T08:59:33.246Z,83.30
2023-07-25T09:02:01.552Z,83.00
2023-07-25T09:04:29.628Z,82.90
2023-07-25T09:06:56.566Z,84.40
2023-07-25T09:09:24.529Z,84.50
2023-07-25T09:11:52.046Z,84.70
2023-07-25T09:14:19.053Z,84.00
2023-07-25T09:16:45.988Z,84.70
2023-07-25T09:19:13.877Z,85.60
2023-07-25T09:21:51.527Z,86.00
2023-07-25T09:24:18.647Z,87.30
2023-07-25T09:26:52.654Z,88.20
2023-07-25T09:29:21.819Z,88.70
2023-07-25T09:31:48.825Z,89.00
2023-07-25T09:34:18.561Z,89.50
2023-07-25T09:36:47.739Z,91.00
2023-07-25T09:39:15.176Z,92.50
2023-07-25T09:41:42.107Z,93.60
2023-07-25T09:44:10.003Z,93.80
2023-07-25T09:46:36.868Z,94.10
2023-07-25T09:49:03.798Z,95.30
2023-07-25T09:51:32.535Z,96.60
2023-07-25T09:53:59.590Z,96.60
2023-07-25T09:56:27.661Z,96.60
2023-07-25T10:01:27.425Z,96.60
2023-07-25T10:03:54.999Z,96.60
2023-07-25T10:06:22.483Z,96.60
2023-07-25T10:08:49.977Z,96.60
2023-07-25T10:11:17.562Z,96.60
2023-07-25T10:13:45.011Z,96.60
2023-07-25T10:16:15.694Z,96.60
2023-07-25T10:18:42.825Z,96.60
2023-07-25T10:21:12.415Z,96.60
2023-07-25T10:23:39.491Z,96.60
2023-07-25T10:26:14.647Z,96.60
2023-07-25T10:28:42.111Z,96.40
2023-07-25T10:31:09.945Z,94.60
2023-07-25T10:33:40.106Z,93.70
2023-07-25T10:36:21.531Z,92.70
2023-07-25T10:38:49.837Z,90.40
2023-07-25T10:41:17.655Z,86.60
2023-07-25T10:43:47.720Z,86.40
2023-07-25T10:46:23.238Z,84.90
2023-07-25T10:48:59.609Z,83.10
2023-07-25T10:51:49.699Z,80.40
2023-07-25T10:54:18.481Z,79.50
2023-07-25T10:57:10.325Z,77.70
2023-07-25T11:00:05.385Z,76.10
2023-07-25T11:02:35.228Z,76.00
2023-07-25T11:05:14.405Z,74.00
2023-07-25T11:07:48.234Z,74.60
2023-07-25T11:10:27.977Z,74.20
2023-07-25T11:12:59.835Z,75.70
2023-07-25T11:17:57.821Z,75.90
2023-07-25T11:20:24.886Z,75.80
2023-07-25T11:22:53.344Z,72.70
2023-07-25T11:25:20.922Z,71.60
2023-07-25T11:27:48.809Z,67.10
2023-07-25T11:30:19.833Z,63.20
2023-07-25T11:32:48.779Z,60.80
2023-07-25T11:35:19.062Z,61.20
2023-07-25T11:37:47.388Z,59.90
2023-07-25T11:40:20.970Z,60.10
2023-07-25T11:42:50.134Z,60.10
2023-07-25T11:45:18.222Z,61.50
2023-07-25T11:47:48.373Z,63.30
2023-07-25T11:50:24.451Z,65.30
2023-07-25T11:52:54.573Z,67.10
2023-07-25T11:55:21.549Z,70.00
2023-07-25T11:57:48.520Z,71.50
2023-07-25T12:00:17.310Z,73.30
2023-07-25T12:02:44.679Z,75.10
2023-07-25T12:05:28.249Z,75.90
2023-07-25T12:08:03.618Z,76.80
2023-07-25T12:10:32.485Z,77.80
2023-07-25T12:13:00.600Z,77.10
2023-07-25T12:15:50.922Z,77.50
2023-07-25T12:18:30.560Z,78.50
2023-07-25T12:21:01.403Z,79.60
2023-07-25T12:23:32.203Z,81.00
2023-07-25T12:26:02.063Z,81.70
2023-07-25T12:28:45.981Z,82.20
2023-07-25T12:31:14.135Z,83.50
2023-07-25T12:33:42.747Z,84.20
2023-07-25T12:36:09.528Z,85.20
2023-07-25T12:38:36.519Z,84.90
2023-07-25T12:41:04.166Z,85.00
2023-07-25T12:43:31.399Z,84.70
2023-07-25T12:45:58.486Z,85.60
2023-07-25T12:48:25.348Z,86.10
2023-07-25T12:50:52.379Z,86.40
2023-07-25T12:53:19.285Z,87.60
2023-07-25T12:55:46.226Z,86.80
2023-07-25T12:58:13.093Z,88.00
2023-07-25T13:00:42.154Z,86.80
2023-07-25T13:03:10.090Z,85.50
2023-07-25T13:05:37.149Z,87.00
2023-07-25T13:08:04.290Z,86.40
2023-07-25T13:10:31.351Z,86.10
2023-07-25T13:12:58.165Z,87.20
2023-07-25T13:15:25.055Z,87.10
2023-07-25T13:17:51.991Z,88.30
2023-07-25T13:20:19.020Z,89.20
2023-07-25T13:22:45.928Z,90.70
2023-07-25T13:25:13.136Z,90.70
2023-07-25T13:27:40.320Z,91.80
2023-07-25T13:30:08.359Z,92.20
2023-07-25T13:32:35.442Z,93.60
2023-07-25T13:35:02.366Z,94.70
2023-07-25T13:37:29.258Z,94.60
2023-07-25T13:39:56.027Z,94.00
2023-07-25T13:42:23.887Z,96.00
2023-07-25T13:44:50.817Z,96.40
2023-07-25T13:47:17.880Z,96.20
2023-07-25T13:49:44.968Z,96.60
2023-07-25T13:52:11.931Z,96.60
2023-07-25T13:54:38.995Z,96.60
2023-07-25T13:57:06.230Z,96.60
2023-07-25T13:59:33.042Z,96.60
2023-07-25T14:02:01.522Z,96.60
2023-07-25T14:04:29.800Z,96.60
2023-07-25T14:06:56.771Z,96.60
2023-07-25T14:09:23.699Z,95.40
2023-07-25T14:11:50.964Z,95.00
2023-07-25T14:14:18.082Z,94.10
2023-07-25T14:16:44.999Z,94.20
2023-07-25T14:19:11.931Z,94.30
2023-07-25T14:21:38.754Z,93.40
2023-07-25T14:24:06.757Z,91.40
2023-07-25T14:26:36.692Z,90.50
2023-07-25T14:29:04.618Z,90.30
2023-07-25T14:31:31.731Z,90.10
2023-07-25T14:33:59.615Z,88.70
2023-07-25T14:36:26.541Z,88.20
2023-07-25T14:38:53.453Z,87.20
2023-07-25T14:41:20.439Z,87.10
2023-07-25T14:43:47.355Z,86.90
2023-07-25T14:46:14.315Z,85.60
2023-07-25T14:48:41.164Z,85.50
2023-07-25T14:51:08.149Z,85.70
2023-07-25T14:53:35.078Z,84.00
2023-07-25T14:56:01.888Z,83.20
2023-07-25T14:58:29.140Z,83.70
2023-07-25T15:00:56.500Z,84.80
2023-07-25T15:03:23.787Z,85.80
2023-07-25T15:05:51.954Z,85.60
2023-07-25T15:08:18.832Z,84.80
2023-07-25T15:10:45.904Z,85.40
2023-07-25T15:13:12.884Z,83.70
2023-07-25T15:15:39.740Z,83.40
2023-07-25T15:18:08.770Z,82.00
2023-07-25T15:20:35.932Z,82.70
2023-07-25T15:23:02.907Z,83.30
2023-07-25T15:25:29.670Z,82.60
2023-07-25T15:27:56.463Z,83.70
2023-07-25T15:30:23.369Z,82.80
2023-07-25T15:32:50.353Z,83.40
2023-07-25T15:35:17.491Z,84.70
2023-07-25T15:37:44.306Z,84.50
2023-07-25T15:40:11.542Z,84.90
2023-07-25T15:42:39.309Z,84.90
2023-07-25T15:45:06.579Z,85.40
2023-07-25T15:47:33.443Z,85.00
2023-07-25T15:50:00.340Z,83.70
2023-07-25T15:52:27.298Z,83.80
2023-07-25T15:54:54.062Z,84.20
2023-07-25T15:57:20.906Z,83.70
2023-07-25T15:59:47.778Z,82.90
2023-07-25T16:02:14.627Z,83.20
2023-07-25T16:04:41.413Z,83.30
2023-07-25T16:07:08.243Z,83.00
2023-07-25T16:09:35.064Z,84.20
2023-07-25T16:12:02.217Z,84.00
2023-07-25T16:14:29.118Z,84.00
2023-07-25T16:16:56.011Z,84.80
2023-07-25T16:19:23.014Z,85.20
2023-07-25T16:21:49.843Z,84.60
2023-07-25T16:24:16.931Z,82.40
2023-07-25T16:26:43.687Z,84.00
2023-07-25T16:29:10.563Z,83.80
2023-07-25T16:31:37.430Z,84.40
2023-07-25T16:34:05.292Z,83.60
2023-07-25T16:36:32.530Z,84.80
2023-07-25T16:38:59.391Z,84.90
2023-07-25T16:41:26.251Z,84.00
2023-07-25T16:43:53.220Z,85.30
2023-07-25T16:46:20.294Z,84.70
2023-07-25T16:48:47.297Z,84.40
2023-07-25T16:51:14.312Z,86.00
2023-07-25T16:53:41.115Z,85.70
2023-07-25T16:56:08.166Z,85.90
2023-07-25T16:58:35.823Z,86.90
2023-07-25T17:01:04.463Z,86.70
2023-07-25T17:03:31.567Z,86.20
2023-07-25T17:05:59.124Z,86.80
2023-07-25T17:08:26.868Z,87.00
2023-07-25T17:10:53.770Z,86.60
2023-07-25T17:13:20.930Z,86.50
2023-07-25T17:15:48.023Z,86.60
2023-07-25T17:18:14.848Z,86.70
2023-07-25T17:20:41.770Z,87.00
2023-07-25T17:23:08.805Z,86.70
2023-07-25T17:25:37.658Z,86.30
2023-07-25T17:28:04.694Z,86.70
2023-07-25T17:30:31.501Z,87.10
2023-07-25T17:33:01.324Z,86.20
2023-07-25T17:35:37.377Z,86.70
2023-07-25T17:38:05.250Z,86.40
2023-07-25T17:40:32.608Z,86.40
2023-07-25T17:42:59.488Z,86.80
2023-07-25T17:45:26.358Z,86.30
2023-07-25T17:47:53.322Z,87.10
2023-07-25T17:50:20.536Z,87.10
2023-07-25T17:52:47.533Z,86.80
2023-07-25T17:55:14.527Z,86.80
2023-07-25T17:57:42.165Z,87.80
2023-07-25T18:00:10.231Z,87.80
2023-07-25T18:02:39.945Z,87.90
2023-07-25T18:05:07.389Z,87.10
2023-07-25T18:07:34.195Z,87.80
2023-07-25T18:10:01.378Z,88.30
2023-07-25T18:12:28.303Z,87.80
2023-07-25T18:14:55.232Z,87.60
2023-07-25T18:17:22.776Z,88.00
2023-07-25T18:19:49.783Z,88.10
2023-07-25T18:22:16.603Z,87.70
2023-07-25T18:24:43.503Z,87.70
2023-07-25T18:27:10.466Z,87.60
2023-07-25T18:29:37.267Z,87.70
2023-07-25T18:32:04.345Z,88.40
2023-07-25T18:34:31.118Z,87.80
2023-07-25T18:36:57.981Z,88.00
2023-07-25T18:39:24.824Z,88.90
2023-07-25T18:41:51.709Z,88.00
2023-07-25T18:44:18.544Z,88.40
2023-07-25T18:46:45.506Z,88.10
2023-07-25T18:49:12.444Z,89.00
2023-07-25T18:51:39.257Z,88.90
2023-07-25T18:54:06.331Z,88.70
2023-07-25T18:56:34.137Z,88.60
2023-07-25T18:59:02.555Z,89.10
2023-07-25T19:01:29.556Z,89.30
2023-07-25T19:03:58.442Z,89.20
2023-07-25T19:06:25.669Z,89.80
2023-07-25T19:08:53.468Z,89.80
2023-07-25T19:11:20.447Z,90.50
2023-07-25T19:13:47.445Z,91.00
2023-07-25T19:16:14.389Z,91.70
2023-07-25T19:18:42.257Z,91.50
2023-07-25T19:21:09.102Z,91.60
2023-07-25T19:23:36.022Z,92.20
2023-07-25T19:26:03.333Z,92.00
2023-07-25T19:28:30.542Z,92.20
2023-07-25T19:30:58.746Z,91.90
2023-07-25T19:33:31.194Z,92.00
2023-07-25T19:36:00.405Z,91.70
2023-07-25T19:38:28.626Z,92.40
2023-07-25T19:40:55.821Z,92.10
2023-07-25T19:43:23.073Z,92.70
2023-07-25T19:45:50.069Z,92.90
2023-07-25T19:48:17.974Z,93.30
2023-07-25T19:50:47.763Z,93.00
2023-07-25T19:53:16.666Z,92.70
2023-07-25T19:55:43.864Z,92.60
2023-07-25T19:58:10.843Z,92.80
2023-07-25T20:00:38.380Z,92.70
2023-07-25T20:03:05.829Z,92.60
2023-07-25T20:05:32.847Z,92.60
2023-07-25T20:07:59.722Z,92.70
2023-07-25T20:10:26.711Z,92.50
2023-07-25T20:12:53.757Z,92.80
2023-07-25T20:15:20.691Z,92.80
2023-07-25T20:17:48.336Z,92.90
2023-07-25T20:20:15.389Z,92.40
2023-07-25T20:22:42.410Z,92.50
2023-07-25T20:25:11.283Z,92.60
2023-07-25T20:27:38.573Z,92.50
2023-07-25T20:30:06.360Z,92.40
2023-07-25T20:32:33.530Z,92.80
2023-07-25T20:35:00.556Z,93.80
2023-07-25T20:37:28.996Z,94.30
2023-07-25T20:39:56.766Z,94.70
2023-07-25T20:42:23.936Z,94.30
2023-07-25T20:44:50.965Z,94.30
2023-07-25T20:47:17.779Z,94.40
2023-07-25T20:49:45.509Z,94.30
2023-07-25T20:52:12.309Z,94.10
2023-07-25T20:54:39.120Z,93.90
2023-07-25T20:57:06.439Z,92.90
2023-07-25T20:59:33.293Z,93.20
2023-07-25T21:02:00.168Z,92.50
2023-07-25T21:04:28.747Z,92.50
2023-07-25T21:06:56.304Z,92.50
2023-07-25T21:09:23.264Z,92.70
2023-07-25T21:11:50.032Z,92.30
2023-07-25T21:14:16.882Z,92.20
2023-07-25T21:16:43.749Z,92.40
2023-07-25T21:19:10.553Z,93.00
2023-07-25T21:21:37.397Z,92.90
2023-07-25T21:24:04.562Z,93.00
2023-07-25T21:26:31.617Z,93.20
2023-07-25T21:28:58.618Z,93.60
2023-07-25T21:31:25.789Z,93.10
2023-07-25T21:33:52.781Z,93.30
2023-07-25T21:36:19.731Z,93.30
2023-07-25T21:38:46.528Z,93.50
2023-07-25T21:41:13.411Z,93.50
2023-07-25T21:43:41.517Z,93.30
2023-07-25T21:46:08.659Z,92.90
2023-07-25T21:48:35.689Z,92.90
2023-07-25T21:51:02.638Z,92.70
2023-07-25T21:53:30.227Z,93.00
2023-07-25T21:55:58.582Z,92.60
2023-07-25T21:58:27.417Z,92.50
2023-07-25T22:00:58.843Z,92.40
2023-07-25T22:03:29.840Z,92.60
2023-07-25T22:05:58.205Z,92.50
2023-07-25T22:08:25.298Z,92.90
2023-07-25T22:10:54.164Z,92.60
2023-07-25T22:13:21.694Z,92.80
2023-07-25T22:15:48.620Z,92.60
2023-07-25T22:18:15.654Z,93.00
2023-07-25T22:20:51.474Z,93.10
2023-07-25T22:23:20.074Z,93.10
2023-07-25T22:25:47.183Z,93.30
2023-07-25T22:28:14.080Z,93.20
2023-07-25T22:30:40.928Z,93.50
2023-07-25T22:33:07.704Z,93.80
2023-07-25T22:35:35.571Z,94.10
2023-07-25T22:38:04.054Z,93.80
2023-07-25T22:40:31.416Z,94.00
2023-07-25T22:42:58.355Z,93.90
2023-07-25T22:45:26.867Z,94.10
2023-07-25T22:47:54.267Z,94.30
2023-07-25T22:50:21.287Z,94.00
2023-07-25T22:52:48.521Z,94.20
2023-07-25T22:55:18.589Z,94.00
2023-07-25T22:57:45.913Z,93.90
2023-07-25T23:00:13.353Z,93.50
2023-07-25T23:02:40.545Z,93.90
2023-07-25T23:05:07.957Z,93.70
2023-07-25T23:07:35.466Z,94.20
2023-07-25T23:10:02.979Z,94.40
2023-07-25T23:12:30.004Z,94.40
2023-07-25T23:14:56.936Z,94.60
2023-07-25T23:17:23.773Z,94.70
2023-07-25T23:19:50.698Z,94.70
2023-07-25T23:22:17.566Z,95.10
2023-07-25T23:24:44.447Z,95.20
2023-07-25T23:27:11.369Z,94.90
2023-07-25T23:29:38.303Z,94.80
2023-07-25T23:32:05.712Z,94.60
2023-07-25T23:34:55.052Z,94.40
2023-07-25T23:37:22.056Z,94.20
2023-07-25T23:39:49.236Z,94.20
2023-07-25T23:42:16.109Z,93.70
2023-07-25T23:44:43.138Z,94.10
2023-07-25T23:47:12.580Z,93.90
2023-07-25T23:49:39.809Z,93.80
2023-07-25T23:52:07.507Z,93.70
2023-07-25T23:54:34.616Z,93.80
2023-07-25T23:57:05.957Z,93.70
2023-07-25T23:59:33.147Z,93.60
